Time;durP1;ratioP1;P1;durP2;ratioP2;P2;SDS_P1;SDS_P2;PMS_P1;PMS_P2;Temp;Humidity;BMP_temperature;BMP_pressure;BME280_temperature;BME280_humidity;BME280_pressure;Samples;Min_cycle;Max_cycle;Signal;HPM_P1;HPM_P2
2022/04/22 00:00:37;;;;;;;;;21.40;20.00;;;;;14.85;64.84;98767.31;5072559;28;9016;-79
2022/04/22 00:03:08;;;;;;;;;20.60;19.60;;;;;14.81;65.03;98751.63;5060330;28;8867;-76
2022/04/22 00:05:37;;;;;;;;;21.00;21.00;;;;;14.79;65.33;98749.97;5047129;28;8904;-76
2022/04/22 00:08:08;;;;;;;;;19.40;19.40;;;;;14.72;65.79;98744.03;5076087;28;8854;-78
2022/04/22 00:11:28;;;;;;;;;23.40;21.40;;;;;14.77;65.28;98734.25;5068268;28;8850;-76
2022/04/22 00:13:26;;;;;;;;;23.80;22.20;;;;;14.69;65.95;98714.41;5050367;28;8892;-74
2022/04/22 00:15:55;;;;;;;;;17.60;13.40;;;;;14.73;65.63;98719.53;5066765;28;8854;-76
2022/04/22 00:18:24;;;;;;;;;23.60;22.80;;;;;14.71;65.51;98720.50;5068249;28;8988;-76
2022/04/22 00:20:53;;;;;;;;;18.40;17.80;;;;;14.75;65.51;98719.50;5063796;28;8853;-79
2022/04/22 00:23:25;;;;;;;;;18.40;17.40;;;;;14.68;66.13;98704.81;5087087;28;8857;-79
2022/04/22 00:25:54;;;;;;;;;25.20;22.20;;;;;14.70;65.78;98701.25;5070479;28;8892;-79
2022/04/22 00:28:23;;;;;;;;;23.40;21.80;;;;;14.54;66.51;98685.09;5068320;28;8877;-75
2022/04/22 00:30:52;;;;;;;;;21.20;19.20;;;;;14.56;66.63;98679.81;5067836;28;8830;-77
2022/04/22 00:33:21;;;;;;;;;22.60;21.00;;;;;14.48;66.26;98681.78;5051484;28;8903;-79
2022/04/22 00:35:50;;;;;;;;;23.40;18.80;;;;;14.36;67.50;98668.13;5067010;28;8868;-77
2022/04/22 00:38:19;;;;;;;;;21.80;20.40;;;;;14.27;67.92;98652.66;5083602;28;8981;-78
2022/04/22 00:40:49;;;;;;;;;22.20;22.00;;;;;14.27;67.87;98639.56;5053355;28;8845;-75
2022/04/22 00:43:18;;;;;;;;;23.40;23.40;;;;;14.17;68.81;98625.00;5046490;28;8889;-76
2022/04/22 00:45:48;;;;;;;;;20.00;18.80;;;;;14.15;68.67;98625.06;5030238;28;8959;-74
2022/04/22 00:48:18;;;;;;;;;25.00;23.40;;;;;14.12;68.66;98627.78;5048086;28;8837;-76
2022/04/22 00:50:48;;;;;;;;;22.20;20.40;;;;;14.11;68.83;98628.69;5063219;28;8860;-76
2022/04/22 00:53:17;;;;;;;;;24.20;22.60;;;;;14.00;69.16;98621.13;5083511;28;8854;-78
2022/04/22 00:55:48;;;;;;;;;20.00;19.60;;;;;13.95;69.79;98619.53;5066987;28;8971;-76
2022/04/22 00:58:17;;;;;;;;;24.80;21.60;;;;;14.01;69.15;98608.91;5070257;28;8854;-76
2022/04/22 01:00:45;;;;;;;;;25.60;24.40;;;;;13.88;69.63;98608.38;5068521;28;8883;-78
2022/04/22 01:03:14;;;;;;;;;24.20;21.80;;;;;13.90;70.31;98619.69;5001377;28;8840;-78
2022/04/22 01:11:27;;;;;;;;;24.20;23.60;;;;;13.98;69.48;98649.16;5068726;28;8868;-75
2022/04/22 01:13:56;;;;;;;;;22.80;21.00;;;;;14.03;69.13;98644.63;4980648;28;8842;-76
2022/04/22 01:16:25;;;;;;;;;21.20;20.60;;;;;14.14;68.07;98641.72;5013206;28;8882;-75
2022/04/22 01:18:54;;;;;;;;;26.00;24.60;;;;;14.11;68.71;98647.03;5009676;28;8880;-76
2022/04/22 01:21:24;;;;;;;;;15.80;15.20;;;;;14.13;68.61;98650.47;5009611;28;8924;-78
2022/04/22 01:23:54;;;;;;;;;24.60;23.40;;;;;14.09;68.79;98633.09;5009250;28;8933;-76
2022/04/22 01:26:22;;;;;;;;;15.80;13.40;;;;;14.12;68.59;98642.63;4989570;28;8833;-77
2022/04/22 01:28:52;;;;;;;;;21.80;21.80;;;;;14.12;67.81;98634.78;4988580;28;8867;-75
2022/04/22 01:31:22;;;;;;;;;14.80;13.00;;;;;14.16;67.83;98631.19;4989453;28;8918;-77
2022/04/22 01:33:51;;;;;;;;;23.60;23.00;;;;;14.27;67.44;98636.94;4992132;28;8845;-76
2022/04/22 01:36:21;;;;;;;;;21.60;20.20;;;;;14.33;66.85;98628.03;4989519;28;8876;-76
2022/04/22 01:38:51;;;;;;;;;21.40;19.20;;;;;14.47;66.74;98630.22;4988317;28;8891;-77
2022/04/22 01:41:21;;;;;;;;;19.80;18.20;;;;;14.39;66.29;98618.22;4988957;28;9600;-77
2022/04/22 01:43:50;;;;;;;;;19.80;18.60;;;;;14.46;66.18;98618.00;4937450;28;8918;-77
2022/04/22 01:46:19;;;;;;;;;20.00;19.20;;;;;14.47;66.20;98598.75;4949280;28;8906;-77
2022/04/22 01:48:48;;;;;;;;;24.20;21.40;;;;;14.50;66.29;98601.25;4950712;28;8911;-78
2022/04/22 01:51:17;;;;;;;;;19.00;17.60;;;;;14.38;66.50;98603.38;4953583;28;8880;-77
2022/04/22 01:53:46;;;;;;;;;19.00;18.40;;;;;14.55;65.21;98604.59;4950128;28;8897;-78
2022/04/22 01:56:16;;;;;;;;;19.00;16.80;;;;;14.36;65.52;98607.81;4966163;28;8876;-76
2022/04/22 01:58:44;;;;;;;;;14.40;13.40;;;;;14.35;64.75;98598.25;4968831;28;9118;-76
2022/04/22 02:01:13;;;;;;;;;15.80;15.80;;;;;14.26;65.27;98603.75;4957046;28;8887;-76
2022/04/22 02:03:42;;;;;;;;;17.80;17.80;;;;;14.26;65.91;98595.91;4949784;28;8875;-78
2022/04/22 02:06:11;;;;;;;;;18.40;17.80;;;;;14.28;65.22;98587.97;4934071;28;9029;-78
2022/04/22 02:08:40;;;;;;;;;15.80;14.80;;;;;14.26;65.20;98574.06;4949100;28;8879;-76
2022/04/22 02:11:08;;;;;;;;;14.40;14.40;;;;;14.24;65.13;98581.97;5011531;28;9088;-76
2022/04/22 02:13:38;;;;;;;;;15.00;15.00;;;;;14.26;65.08;98581.94;4979270;28;8892;-77
2022/04/22 02:16:08;;;;;;;;;17.40;15.20;;;;;14.22;65.23;98563.66;5016207;28;8882;-77
2022/04/22 02:18:38;;;;;;;;;17.60;16.40;;;;;14.21;65.45;98574.19;5047209;28;8980;-76
2022/04/22 02:21:08;;;;;;;;;15.40;15.40;;;;;14.27;65.08;98560.03;5032819;28;8840;-76
2022/04/22 02:23:37;;;;;;;;;13.20;13.20;;;;;14.27;65.37;98560.88;5049073;28;8861;-78
2022/04/22 02:26:05;;;;;;;;;21.20;18.40;;;;;14.23;65.25;98564.50;5050028;28;8873;-77
2022/04/22 02:28:34;;;;;;;;;16.80;16.40;;;;;14.14;65.99;98549.06;5049075;28;8857;-75
2022/04/22 02:31:06;;;;;;;;;13.00;13.00;;;;;14.16;65.95;98549.91;5032148;28;8848;-76
2022/04/22 02:33:37;;;;;;;;;17.40;15.60;;;;;14.00;65.87;98544.25;5047638;28;8853;-76
2022/04/22 02:36:08;;;;;;;;;15.20;12.40;;;;;13.91;66.31;98550.63;5049860;28;8891;-77
2022/04/22 02:38:37;;;;;;;;;11.40;10.60;;;;;13.96;66.19;98550.50;5065535;28;8899;-75
2022/04/22 02:46:40;;;;;;;;;13.60;10.40;;;;;13.98;65.81;98546.91;5020180;28;8888;-75
2022/04/22 02:49:09;;;;;;;;;9.40;9.40;;;;;14.00;65.11;98552.97;5049890;28;8861;-78
2022/04/22 02:51:38;;;;;;;;;11.00;11.00;;;;;14.11;65.20;98555.28;5064079;28;9591;-74
2022/04/22 02:54:07;;;;;;;;;10.80;10.00;;;;;14.15;65.67;98535.91;5031645;28;8864;-75
2022/04/22 02:56:36;;;;;;;;;9.80;9.80;;;;;14.15;65.24;98540.31;5049498;28;8959;-76
2022/04/22 02:59:04;;;;;;;;;12.40;11.40;;;;;14.15;65.30;98533.28;5048280;28;8985;-76
2022/04/22 03:01:34;;;;;;;;;12.80;12.20;;;;;14.19;65.62;98553.25;5031520;28;9036;-75
2022/04/22 03:04:05;;;;;;;;;12.20;12.20;;;;;14.21;65.12;98588.19;5048202;28;9492;-76
2022/04/22 03:06:34;;;;;;;;;17.40;16.40;;;;;13.88;67.60;98578.72;4981366;28;8845;-75
2022/04/22 03:09:02;;;;;;;;;12.80;12.40;;;;;14.15;66.51;98571.75;4992272;28;8963;-76
2022/04/22 03:11:31;;;;;;;;;13.40;12.80;;;;;14.17;66.96;98568.19;5047911;28;9610;-77
2022/04/22 03:14:00;;;;;;;;;11.00;11.00;;;;;14.19;66.46;98552.41;5081458;28;8955;-76
2022/04/22 03:16:28;;;;;;;;;9.60;9.00;;;;;14.12;66.12;98554.38;5064393;28;8860;-80
2022/04/22 03:18:57;;;;;;;;;11.20;11.20;;;;;14.15;65.71;98558.66;5063672;28;8857;-75
2022/04/22 03:21:27;;;;;;;;;21.60;21.60;;;;;14.26;65.20;98550.47;5014335;28;8853;-77
2022/04/22 03:23:57;;;;;;;;;14.20;12.00;;;;;14.26;64.85;98532.09;5065223;28;8963;-80
2022/04/22 03:26:25;;;;;;;;;15.80;13.80;;;;;14.10;65.50;98529.97;5063117;28;8840;-76
2022/04/22 03:28:57;;;;;;;;;11.00;9.00;;;;;14.10;65.14;98539.59;5016721;28;8872;-78
2022/04/22 03:31:25;;;;;;;;;10.80;10.60;;;;;14.10;64.97;98540.47;5067450;28;8867;-75
2022/04/22 03:33:54;;;;;;;;;10.80;10.80;;;;;14.02;65.23;98524.94;5050703;28;8928;-76
2022/04/22 03:36:22;;;;;;;;;13.20;10.60;;;;;14.03;65.13;98521.44;5046951;28;8838;-76
2022/04/22 03:38:52;;;;;;;;;10.00;10.00;;;;;13.98;66.01;98519.84;5030140;28;8970;-78
2022/04/22 03:41:21;;;;;;;;;11.00;9.40;;;;;13.99;66.04;98516.34;5049222;28;8846;-76
2022/04/22 03:43:49;;;;;;;;;12.00;11.60;;;;;13.85;67.22;98498.41;5040630;28;9052;-77
2022/04/22 03:46:18;;;;;;;;;12.40;12.40;;;;;13.73;67.84;98507.50;5046281;28;8892;-77
2022/04/22 03:48:47;;;;;;;;;15.20;12.00;;;;;13.65;68.61;98493.78;5046709;28;8969;-77
2022/04/22 03:51:15;;;;;;;;;7.60;7.60;;;;;13.77;68.44;98484.69;5032635;28;8964;-77
2022/04/22 03:53:44;;;;;;;;;11.80;11.60;;;;;13.59;69.02;98497.44;5032973;28;8977;-76
2022/04/22 03:59:02;;;;;;;;;10.00;10.00;;;;;13.63;69.24;98490.34;5031471;28;8872;-75
2022/04/22 04:01:30;;;;;;;;;11.60;9.40;;;;;13.60;69.65;98486.03;5049270;28;8847;-76
2022/04/22 04:03:59;;;;;;;;;11.40;10.40;;;;;13.61;69.04;98472.06;5065682;28;8852;-77
2022/04/22 04:06:28;;;;;;;;;14.20;12.40;;;;;13.50;69.96;98466.28;5049267;28;8832;-78
2022/04/22 04:17:16;;;;;;;;;15.20;11.60;;;;;13.36;69.99;98463.19;5050311;28;8882;-76
2022/04/22 04:25:16;;;;;;;;;15.80;13.60;;;;;13.17;72.11;98458.47;5051157;28;9615;-76
2022/04/22 04:27:46;;;;;;;;;14.80;11.40;;;;;13.20;72.04;98461.00;5049865;28;8882;-76
2022/04/22 04:30:15;;;;;;;;;14.60;13.60;;;;;13.13;73.08;98461.22;5049111;28;8879;-75
2022/04/22 04:32:43;;;;;;;;;17.20;15.40;;;;;13.20;72.60;98454.91;5071130;28;8846;-76
2022/04/22 04:35:12;;;;;;;;;16.00;14.20;;;;;13.17;72.16;98453.22;5037313;28;8862;-76
2022/04/22 04:37:42;;;;;;;;;13.00;12.40;;;;;13.15;72.54;98457.66;5071490;28;8866;-75
2022/04/22 04:40:11;;;;;;;;;15.80;15.20;;;;;13.25;72.35;98458.25;5067428;28;8861;-76
2022/04/22 04:42:41;;;;;;;;;13.40;11.80;;;;;13.26;72.57;98466.06;5067521;28;8837;-77
2022/04/22 04:45:12;;;;;;;;;12.80;10.80;;;;;13.21;73.04;98462.72;5084032;28;8880;-76
2022/04/22 04:47:41;;;;;;;;;11.20;10.60;;;;;13.28;71.90;98458.16;5033670;28;8941;-76
2022/04/22 04:50:11;;;;;;;;;12.00;12.00;;;;;13.22;72.43;98446.09;5067275;28;8971;-76
2022/04/22 04:52:40;;;;;;;;;15.40;14.20;;;;;13.27;72.39;98444.22;5050773;28;8871;-77
2022/04/22 04:55:10;;;;;;;;;12.00;12.00;;;;;13.29;72.26;98438.94;5049965;28;8877;-76
2022/04/22 04:57:39;;;;;;;;;10.00;10.00;;;;;13.29;71.56;98446.81;5050356;28;8895;-76
2022/04/22 05:00:14;;;;;;;;;11.00;9.20;;;;;13.32;71.32;98440.63;5067626;28;8849;-78
2022/04/22 05:02:42;;;;;;;;;11.80;11.00;;;;;13.27;71.52;98446.00;5050412;28;8845;-77
2022/04/22 05:05:12;;;;;;;;;11.00;11.00;;;;;13.31;71.66;98457.22;5052321;28;8856;-77
2022/04/22 05:07:48;;;;;;;;;10.00;10.00;;;;;13.38;71.27;98441.31;5069018;28;8852;-76
2022/04/22 05:10:19;;;;;;;;;14.60;11.80;;;;;13.43;70.37;98455.13;5069285;28;8844;-77
2022/04/22 05:12:48;;;;;;;;;12.40;11.80;;;;;13.41;70.69;98463.94;5052196;28;8851;-76
2022/04/22 05:15:19;;;;;;;;;17.00;12.80;;;;;13.42;71.22;98449.91;5052894;28;8873;-77
2022/04/22 05:17:48;;;;;;;;;10.80;9.60;;;;;13.47;70.52;98437.56;5068922;28;8958;-78
2022/04/22 05:20:19;;;;;;;;;12.60;10.40;;;;;13.55;70.68;98439.94;5057018;28;8848;-77
2022/04/22 05:22:49;;;;;;;;;11.20;11.00;;;;;13.60;70.23;98436.28;5019155;28;8860;-78
2022/04/22 05:25:17;;;;;;;;;12.60;9.60;;;;;13.64;69.83;98427.41;5051937;28;8836;-77
2022/04/22 05:27:46;;;;;;;;;10.00;10.00;;;;;13.66;70.55;98416.88;5068477;28;8856;-77
2022/04/22 05:33:04;;;;;;;;;10.60;10.40;;;;;13.67;70.62;98417.75;5068944;28;8836;-76
2022/04/22 05:35:33;;;;;;;;;10.60;9.60;;;;;13.66;70.18;98427.38;5018980;28;8854;-79
2022/04/22 05:38:03;;;;;;;;;10.40;10.40;;;;;13.81;70.13;98410.31;5028440;28;8825;-76
2022/04/22 05:40:34;;;;;;;;;13.20;11.60;;;;;13.84;69.95;98395.34;5028221;28;8852;-79
2022/04/22 05:43:03;;;;;;;;;11.40;10.00;;;;;13.90;69.75;98389.06;5027798;28;8856;-75
2022/04/22 05:45:32;;;;;;;;;9.80;9.80;;;;;13.94;69.39;98381.94;5028774;28;8844;-75
2022/04/22 05:48:02;;;;;;;;;13.00;11.00;;;;;13.90;69.77;98389.06;4979803;28;8840;-75
2022/04/22 05:50:31;;;;;;;;;11.40;10.40;;;;;13.94;69.18;98388.03;5027079;28;8868;-76
2022/04/22 05:53:00;;;;;;;;;11.00;11.00;;;;;14.05;68.92;98392.94;5028400;28;8864;-79
2022/04/22 05:55:29;;;;;;;;;10.00;10.00;;;;;14.03;69.07;98381.66;5011419;28;8860;-78
2022/04/22 05:57:59;;;;;;;;;10.60;10.00;;;;;14.13;68.06;98372.56;5044555;28;8876;-77
2022/04/22 06:00:31;;;;;;;;;10.20;9.80;;;;;14.22;68.66;98359.13;5011325;28;9082;-75
2022/04/22 06:03:01;;;;;;;;;10.00;9.00;;;;;14.28;68.33;98355.44;5044667;28;8860;-78
2022/04/22 06:05:32;;;;;;;;;10.60;10.60;;;;;14.36;68.14;98335.03;5027376;28;8859;-75
2022/04/22 06:10:53;;;;;;;;;11.60;10.00;;;;;14.43;67.30;98333.06;5053445;28;9599;-76
2022/04/22 06:13:22;;;;;;;;;10.80;10.60;;;;;14.58;66.78;98318.59;5101851;28;8862;-76
2022/04/22 06:15:51;;;;;;;;;10.00;9.60;;;;;14.69;66.27;98337.41;5047148;28;8872;-77
2022/04/22 06:18:19;;;;;;;;;10.40;10.00;;;;;14.80;65.77;98311.63;5053213;28;8853;-77
2022/04/22 06:20:51;;;;;;;;;7.40;4.00;;;;;14.86;64.73;98314.91;5051276;28;8864;-77
2022/04/22 06:23:19;;;;;;;;;12.60;11.40;;;;;15.04;63.71;98300.25;5086568;28;8874;-77
2022/04/22 06:25:48;;;;;;;;;11.60;10.00;;;;;15.11;63.28;98292.06;5029085;28;9603;-78
2022/04/22 06:28:17;;;;;;;;;13.40;13.40;;;;;15.23;63.23;98295.97;5029612;28;8826;-77
2022/04/22 06:30:48;;;;;;;;;7.20;7.20;;;;;15.42;62.52;98295.25;5012926;28;8866;-78
2022/04/22 06:33:18;;;;;;;;;11.60;11.40;;;;;15.59;61.71;98288.41;5046025;28;8846;-76
2022/04/22 06:35:47;;;;;;;;;8.60;8.60;;;;;15.71;61.43;98289.66;5063805;28;8861;-76
2022/04/22 06:38:18;;;;;;;;;11.40;10.80;;;;;15.81;61.23;98269.13;5014068;28;9756;-76
2022/04/22 06:46:22;;;;;;;;;10.00;9.20;;;;;15.76;60.04;98257.94;5034835;28;8845;-75
2022/04/22 06:48:51;;;;;;;;;13.00;12.20;;;;;15.72;60.35;98272.09;5048790;28;8960;-78
2022/04/22 06:51:22;;;;;;;;;11.20;11.20;;;;;15.73;60.09;98269.44;5045904;28;9011;-78
2022/04/22 06:53:52;;;;;;;;;12.00;12.00;;;;;15.84;60.01;98273.38;5046726;28;9697;-79
2022/04/22 06:56:26;;;;;;;;;12.40;11.80;;;;;15.83;60.56;98272.53;5034291;28;8830;-71
2022/04/22 06:58:55;;;;;;;;;14.80;11.80;;;;;15.90;59.61;98265.25;5067586;28;8846;-70
2022/04/22 07:01:25;;;;;;;;;11.60;11.20;;;;;15.87;59.97;98266.22;5066613;28;8838;-70
2022/04/22 07:04:12;;;;;;;;;12.20;11.40;;;;;15.92;60.01;98284.44;5048287;28;8880;-73
2022/04/22 07:06:42;;;;;;;;;9.00;8.00;;;;;15.84;60.09;98295.28;5060759;28;8862;-70
2022/04/22 07:09:13;;;;;;;;;9.40;9.40;;;;;15.91;59.96;98286.19;5068900;28;8948;-69
2022/04/22 07:11:42;;;;;;;;;12.00;10.20;;;;;15.97;59.61;98282.47;5032804;28;9634;-80
2022/04/22 07:14:12;;;;;;;;;14.80;11.00;;;;;15.98;59.33;98266.63;5051111;28;8870;-79
2022/04/22 07:16:45;;;;;;;;;15.60;12.00;;;;;16.10;58.86;98265.22;5082295;28;8862;-80
2022/04/22 07:19:14;;;;;;;;;10.60;10.00;;;;;16.14;58.83;98265.94;5023341;28;8906;-80
2022/04/22 07:21:43;;;;;;;;;10.20;8.00;;;;;16.10;58.74;98246.81;5093373;28;8851;-80
2022/04/22 07:24:13;;;;;;;;;8.20;8.00;;;;;16.22;58.54;98248.06;5086544;28;8961;-80
2022/04/22 07:26:44;;;;;;;;;10.40;9.00;;;;;16.34;57.42;98244.88;5048439;28;8921;-84
2022/04/22 07:29:14;;;;;;;;;12.00;12.00;;;;;16.37;57.17;98236.84;5106645;27;8994;-80
2022/04/22 07:31:43;;;;;;;;;11.80;9.60;;;;;16.40;56.13;98232.38;5075710;28;8854;-81
2022/04/22 07:34:12;;;;;;;;;10.00;9.40;;;;;16.43;56.22;98213.84;5065936;28;8858;-81
2022/04/22 07:36:43;;;;;;;;;10.60;10.60;;;;;16.62;56.36;98251.53;5095348;27;8948;-82
2022/04/22 07:39:14;;;;;;;;;8.00;8.00;;;;;16.76;55.94;98256.16;5089899;28;8871;-79
2022/04/22 07:41:45;;;;;;;;;11.40;10.00;;;;;16.77;56.32;98235.03;5062917;28;8897;-80
2022/04/22 07:47:08;;;;;;;;;9.80;9.40;;;;;17.15;55.96;98253.44;5065700;28;9611;-82
2022/04/22 07:49:37;;;;;;;;;9.00;8.20;;;;;17.29;55.46;98225.56;5064662;28;8847;-81
2022/04/22 07:52:07;;;;;;;;;9.80;8.80;;;;;17.36;55.81;98231.41;5050755;28;8885;-84
2022/04/22 07:54:37;;;;;;;;;11.40;10.20;;;;;17.42;55.21;98237.22;5030049;28;8888;-84
2022/04/22 07:57:06;;;;;;;;;10.00;10.00;;;;;17.42;54.51;98231.94;5048797;28;8861;-83
2022/04/22 07:59:34;;;;;;;;;9.20;9.00;;;;;17.55;54.23;98242.72;5031545;28;8853;-83
2022/04/22 08:02:04;;;;;;;;;10.00;9.00;;;;;17.70;54.56;98231.41;5086522;28;8869;-82
2022/04/22 08:04:34;;;;;;;;;9.40;9.00;;;;;17.84;54.14;98225.44;5033858;28;8855;-81
2022/04/22 08:07:05;;;;;;;;;7.20;7.20;;;;;17.83;53.00;98213.19;5024759;28;8907;-83
2022/04/22 08:09:52;;;;;;;;;10.20;9.40;;;;;17.86;53.21;98196.38;5066037;28;9052;-82
2022/04/22 08:12:21;;;;;;;;;9.20;9.20;;;;;17.87;52.75;98198.94;5068167;28;8854;-81
2022/04/22 08:14:59;;;;;;;;;9.00;8.20;;;;;17.90;52.47;98195.28;5063517;28;9561;-85
2022/04/22 08:17:28;;;;;;;;;9.00;7.80;;;;;17.92;52.25;98193.44;5049632;28;9070;-87
2022/04/22 08:19:56;;;;;;;;;6.80;6.80;;;;;17.95;51.62;98200.31;5068034;28;8854;-84
2022/04/22 08:22:25;;;;;;;;;10.20;10.00;;;;;17.96;51.87;98194.97;5083573;28;8999;-83
2022/04/22 08:24:56;;;;;;;;;9.60;8.60;;;;;18.00;51.69;98195.66;5064061;28;8860;-81
2022/04/22 08:27:28;;;;;;;;;10.00;8.00;;;;;17.99;51.61;98201.84;5049461;28;8877;-82
2022/04/22 08:29:57;;;;;;;;;9.00;8.80;;;;;18.09;51.91;98206.59;5065524;28;8861;-87
2022/04/22 08:32:27;;;;;;;;;9.40;8.00;;;;;18.20;51.48;98198.06;5068090;28;8872;-84
2022/04/22 08:34:55;;;;;;;;;8.80;7.80;;;;;18.34;51.54;98199.16;5049994;28;9659;-82
2022/04/22 08:37:24;;;;;;;;;11.80;10.40;;;;;18.46;51.47;98188.75;5071010;28;9693;-84
2022/04/22 08:39:54;;;;;;;;;10.00;9.40;;;;;18.53;50.63;98194.56;5074800;28;9580;-83
2022/04/22 08:42:29;;;;;;;;;10.00;9.40;;;;;18.57;50.55;98193.47;5052602;28;9632;-84
2022/04/22 08:45:06;;;;;;;;;10.00;8.00;;;;;18.62;50.10;98196.72;5055986;28;8868;-84
2022/04/22 08:50:23;;;;;;;;;8.20;8.20;;;;;18.71;49.60;98166.28;5040037;28;8882;-80
2022/04/22 08:52:56;;;;;;;;;9.40;8.00;;;;;18.85;49.98;98181.41;5059796;28;8865;-77
2022/04/22 08:55:26;;;;;;;;;7.60;7.20;;;;;18.95;49.71;98182.56;5044164;28;8951;-70
2022/04/22 08:57:57;;;;;;;;;9.20;8.20;;;;;18.97;49.31;98191.25;5044563;28;8938;-69
2022/04/22 09:00:27;;;;;;;;;6.00;6.00;;;;;19.11;49.25;98168.47;5044456;28;8884;-72
2022/04/22 09:02:56;;;;;;;;;8.40;8.40;;;;;19.17;48.48;98169.00;5044748;28;8854;-70
2022/04/22 09:05:26;;;;;;;;;6.80;6.80;;;;;19.31;48.08;98173.47;5044697;28;9606;-70
2022/04/22 09:07:55;;;;;;;;;12.00;10.60;;;;;19.40;47.90;98172.09;5045039;28;8911;-69
2022/04/22 09:10:24;;;;;;;;;8.60;8.20;;;;;19.51;47.37;98163.50;5044195;28;8924;-71
2022/04/22 09:12:54;;;;;;;;;8.20;7.80;;;;;19.47;47.21;98166.34;4998685;28;8858;-70
2022/04/22 09:15:25;;;;;;;;;9.00;8.60;;;;;19.61;46.42;98157.59;5044109;28;8899;-71
2022/04/22 09:17:57;;;;;;;;;8.40;8.40;;;;;19.78;46.26;98158.41;5045952;28;8869;-70
2022/04/22 09:20:32;;;;;;;;;8.00;8.00;;;;;19.83;45.87;98170.41;5062158;28;8842;-70
2022/04/22 09:23:01;;;;;;;;;8.00;7.80;;;;;19.95;45.89;98155.56;5051668;28;8972;-71
2022/04/22 09:25:30;;;;;;;;;11.00;9.20;;;;;20.03;45.36;98165.69;5059691;28;8931;-70
2022/04/22 09:28:10;;;;;;;;;10.20;8.40;;;;;20.17;45.23;98183.34;5052737;28;8873;-70
2022/04/22 09:30:42;;;;;;;;;9.00;8.00;;;;;20.24;44.80;98168.78;5063935;28;9000;-71
2022/04/22 09:33:10;;;;;;;;;9.60;9.60;;;;;20.33;44.59;98173.53;5065745;28;8979;-71
2022/04/22 09:44:14;;;;;;;;;4.00;4.00;;;;;20.54;43.96;98160.72;5052134;28;8837;-69
2022/04/22 09:46:44;;;;;;;;;8.40;8.40;;;;;20.58;43.82;98148.97;5050176;28;8864;-74
2022/04/22 09:49:40;;;;;;;;;8.40;7.20;;;;;20.70;43.48;98142.09;5029981;28;8900;-75
2022/04/22 09:52:09;;;;;;;;;10.80;9.80;;;;;20.72;43.45;98134.03;5050321;28;8868;-73
2022/04/22 09:54:39;;;;;;;;;10.00;8.20;;;;;20.76;43.36;98124.97;5049814;28;8954;-74
2022/04/22 09:57:27;;;;;;;;;10.60;9.20;;;;;20.85;43.45;98132.31;5076572;28;8837;-73
2022/04/22 09:59:56;;;;;;;;;11.60;10.00;;;;;20.88;43.22;98132.09;5060123;28;8855;-72
2022/04/22 10:02:29;;;;;;;;;10.80;10.00;;;;;20.95;43.05;98120.13;5063138;28;8861;-74
2022/04/22 10:04:59;;;;;;;;;11.20;10.20;;;;;21.11;43.36;98114.66;5063870;28;8876;-72
2022/04/22 10:07:30;;;;;;;;;9.80;9.80;;;;;21.17;42.76;98102.78;5082183;28;9718;-74
2022/04/22 10:10:02;;;;;;;;;12.60;10.60;;;;;21.09;42.24;98099.81;5059349;28;8979;-74
2022/04/22 10:12:35;;;;;;;;;9.00;9.00;;;;;21.15;42.57;98108.22;5048685;28;8861;-73
2022/04/22 10:15:08;;;;;;;;;9.40;9.00;;;;;21.19;41.88;98084.97;5049100;28;8895;-73
2022/04/22 10:17:39;;;;;;;;;9.60;8.80;;;;;21.19;42.21;98092.94;5033980;28;8893;-74
2022/04/22 10:20:08;;;;;;;;;11.00;11.00;;;;;21.28;42.16;98084.34;5063501;28;8979;-71
2022/04/22 10:22:37;;;;;;;;;10.80;10.80;;;;;21.36;41.75;98090.00;5049270;28;8849;-77
2022/04/22 10:25:08;;;;;;;;;8.20;8.20;;;;;21.46;41.10;98078.81;5049092;28;8861;-71
2022/04/22 10:27:37;;;;;;;;;7.00;7.00;;;;;21.68;41.07;98083.47;5049099;28;8876;-73
2022/04/22 10:30:10;;;;;;;;;10.80;10.20;;;;;21.93;41.41;98079.97;5080127;28;8845;-70
2022/04/22 10:32:42;;;;;;;;;9.60;9.60;;;;;22.12;40.97;98085.66;5013968;28;8849;-72
2022/04/22 10:35:13;;;;;;;;;5.80;5.80;;;;;22.03;40.63;98070.38;4968524;28;8868;-74
2022/04/22 10:37:43;;;;;;;;;9.00;9.00;;;;;22.12;40.83;98061.75;5064056;28;8865;-69
2022/04/22 10:40:20;;;;;;;;;10.00;10.00;;;;;22.23;41.09;98054.81;5041654;28;8831;-72
2022/04/22 10:42:49;;;;;;;;;11.20;10.60;;;;;22.30;40.81;98051.63;5053941;28;8877;-74
2022/04/22 10:48:21;;;;;;;;;9.00;8.00;;;;;22.37;40.03;98049.38;5046839;28;8888;-73
2022/04/22 10:50:57;;;;;;;;;10.60;8.20;;;;;22.40;39.76;98041.19;5048141;28;8875;-73
2022/04/22 10:53:27;;;;;;;;;9.60;9.40;;;;;22.43;39.07;98037.47;5056151;28;8848;-73
2022/04/22 10:56:32;;;;;;;;;10.00;9.20;;;;;22.53;38.09;98033.16;5070701;28;8834;-77
2022/04/22 10:59:32;;;;;;;;;8.60;7.80;;;;;22.64;38.43;98033.19;5061199;28;8876;-73
2022/04/22 11:02:27;;;;;;;;;10.00;9.80;;;;;22.68;37.89;98020.53;5049412;28;8870;-74
2022/04/22 11:05:32;;;;;;;;;8.40;8.40;;;;;22.72;38.68;98009.59;5064210;28;8859;-74
2022/04/22 11:08:06;;;;;;;;;9.20;8.80;;;;;22.81;39.48;98010.69;5062276;28;8859;-74
2022/04/22 11:10:58;;;;;;;;;9.20;8.60;;;;;22.97;38.56;98013.88;5043842;28;8998;-78
2022/04/22 11:13:29;;;;;;;;;9.00;8.80;;;;;23.05;38.23;97988.56;5051874;28;8957;-80
2022/04/22 11:15:58;;;;;;;;;8.40;7.20;;;;;23.07;38.22;98002.59;5039587;28;9027;-70
2022/04/22 11:18:26;;;;;;;;;9.00;9.00;;;;;23.11;38.00;97990.75;5045486;28;8857;-72
2022/04/22 11:21:02;;;;;;;;;13.20;10.80;;;;;23.10;37.99;97978.41;5045253;28;8862;-74
2022/04/22 11:23:40;;;;;;;;;10.00;10.00;;;;;23.18;38.09;97975.16;5046451;28;8980;-73
2022/04/22 11:26:13;;;;;;;;;13.80;12.80;;;;;23.21;38.03;97970.44;5064572;28;8934;-72
2022/04/22 11:28:44;;;;;;;;;11.00;10.60;;;;;23.21;38.29;97973.09;5046650;28;8838;-72
2022/04/22 11:31:14;;;;;;;;;8.60;8.00;;;;;23.28;38.43;97984.94;5045445;28;8838;-73
2022/04/22 11:33:54;;;;;;;;;8.00;7.80;;;;;23.35;37.96;97966.72;5045009;28;8831;-74
2022/04/22 11:36:24;;;;;;;;;10.60;10.20;;;;;23.57;38.25;97973.81;5046234;28;8963;-70
2022/04/22 11:38:55;;;;;;;;;10.60;10.60;;;;;23.67;38.15;97953.53;5047582;28;9657;-73
2022/04/22 11:41:24;;;;;;;;;10.40;10.40;;;;;23.67;38.51;97956.19;5043429;28;8849;-70
2022/04/22 11:43:53;;;;;;;;;10.00;9.00;;;;;23.84;38.04;97959.34;5044970;28;8871;-70
2022/04/22 11:46:23;;;;;;;;;12.80;10.00;;;;;23.94;36.86;97958.47;5049624;28;8865;-70
2022/04/22 11:48:53;;;;;;;;;8.20;8.20;;;;;24.04;36.31;97949.72;5047279;28;8876;-70
2022/04/22 11:51:23;;;;;;;;;10.60;9.60;;;;;24.22;36.20;97945.56;5046901;28;8946;-69
2022/04/22 11:53:54;;;;;;;;;12.00;9.80;;;;;24.42;35.54;97933.22;5054508;28;9604;-68
2022/04/22 11:56:25;;;;;;;;;10.20;10.20;;;;;24.65;36.00;97938.47;5059082;28;8903;-71
2022/04/22 11:58:54;;;;;;;;;11.40;11.40;;;;;24.82;36.24;97937.06;5063536;28;8873;-70
2022/04/22 12:06:59;;;;;;;;;8.60;7.60;;;;;25.03;35.33;97932.56;5047218;28;9010;-71
2022/04/22 12:09:31;;;;;;;;;9.40;9.40;;;;;25.13;35.17;97935.28;5062562;28;9578;-69
2022/04/22 12:12:00;;;;;;;;;9.80;9.80;;;;;25.23;34.66;97938.03;5045678;28;8861;-69
2022/04/22 12:14:30;;;;;;;;;11.80;8.40;;;;;25.34;34.55;97926.44;5047643;28;8864;-73
2022/04/22 12:17:00;;;;;;;;;7.20;7.20;;;;;25.47;34.14;97911.88;5028972;28;8915;-71
2022/04/22 12:19:29;;;;;;;;;12.00;11.00;;;;;25.64;34.21;97923.72;5047977;28;8869;-71
2022/04/22 12:22:00;;;;;;;;;11.00;11.00;;;;;25.91;33.71;97921.41;5028220;28;9715;-72
2022/04/22 12:24:28;;;;;;;;;12.40;11.40;;;;;25.90;33.85;97904.53;5057783;28;8857;-71
2022/04/22 12:27:01;;;;;;;;;11.00;11.00;;;;;26.17;33.43;97914.56;5028637;28;8864;-72
2022/04/22 12:29:30;;;;;;;;;11.40;10.80;;;;;26.33;32.54;97895.28;5062944;28;8860;-76
2022/04/22 12:31:59;;;;;;;;;12.20;10.80;;;;;26.29;32.52;97901.06;5046112;28;8872;-77
2022/04/22 12:34:30;;;;;;;;;10.40;9.80;;;;;26.33;31.73;97897.97;5063634;28;9020;-75
2022/04/22 12:37:00;;;;;;;;;9.00;8.40;;;;;26.27;32.28;97901.22;5050386;28;8875;-75
2022/04/22 12:39:38;;;;;;;;;10.20;10.20;;;;;26.20;31.87;97889.38;5079629;28;8876;-71
2022/04/22 12:42:26;;;;;;;;;12.60;10.80;;;;;26.22;32.40;97876.75;5064372;28;8896;-68
2022/04/22 12:53:43;;;;;;;;;9.80;9.00;;;;;26.24;32.34;97867.59;5067614;28;8850;-70
2022/04/22 12:56:12;;;;;;;;;10.60;9.20;;;;;26.30;32.33;97868.03;5048531;28;8852;-72